sensor_id;sensor_type;location;lat;lon;timestamp;P1;durP1;ratioP1;P2;durP2;ratioP2
1507;SDS011;745;48.586;10.032;2022-11-04T00:03:19;1.93;;;1.80;;
1507;SDS011;745;48.586;10.032;2022-11-04T00:07:50;1.57;;;1.47;;
1507;SDS011;745;48.586;10.032;2022-11-04T00:12:39;1.70;;;1.60;;
1507;SDS011;745;48.586;10.032;2022-11-04T00:17:10;1.73;;;1.50;;
1507;SDS011;745;48.586;10.032;2022-11-04T00:21:54;1.97;;;1.83;;
1507;SDS011;745;48.586;10.032;2022-11-04T00:26:43;1.73;;;1.63;;
1507;SDS011;745;48.586;10.032;2022-11-04T00:31:31;1.93;;;1.73;;
1507;SDS011;745;48.586;10.032;2022-11-04T00:36:21;1.70;;;1.60;;
1507;SDS011;745;48.586;10.032;2022-11-04T00:40:52;1.90;;;1.80;;
1507;SDS011;745;48.586;10.032;2022-11-04T00:45:23;1.83;;;1.63;;
1507;SDS011;745;48.586;10.032;2022-11-04T00:49:53;1.80;;;1.70;;
1507;SDS011;745;48.586;10.032;2022-11-04T00:54:24;1.83;;;1.73;;
1507;SDS011;745;48.586;10.032;2022-11-04T00:58:55;2.50;;;1.97;;
1507;SDS011;745;48.586;10.032;2022-11-04T01:03:25;1.80;;;1.70;;
1507;SDS011;745;48.586;10.032;2022-11-04T01:07:56;1.70;;;1.60;;
1507;SDS011;745;48.586;10.032;2022-11-04T01:12:26;1.57;;;1.47;;
1507;SDS011;745;48.586;10.032;2022-11-04T01:16:57;2.17;;;1.90;;
1507;SDS011;745;48.586;10.032;2022-11-04T01:21:28;2.10;;;1.90;;
1507;SDS011;745;48.586;10.032;2022-11-04T01:25:59;1.97;;;1.87;;
1507;SDS011;745;48.586;10.032;2022-11-04T01:30:29;1.87;;;1.77;;
1507;SDS011;745;48.586;10.032;2022-11-04T01:35:00;2.07;;;1.97;;
1507;SDS011;745;48.586;10.032;2022-11-04T01:39:30;2.03;;;1.83;;
1507;SDS011;745;48.586;10.032;2022-11-04T01:49:25;1.90;;;1.77;;
1507;SDS011;745;48.586;10.032;2022-11-04T01:53:58;2.30;;;2.10;;
1507;SDS011;745;48.586;10.032;2022-11-04T01:58:30;2.10;;;1.83;;
1507;SDS011;745;48.586;10.032;2022-11-04T02:03:03;1.80;;;1.70;;
1507;SDS011;745;48.586;10.032;2022-11-04T02:07:37;2.07;;;1.53;;
1507;SDS011;745;48.586;10.032;2022-11-04T02:12:07;1.80;;;1.70;;
1507;SDS011;745;48.586;10.032;2022-11-04T02:17:04;2.80;;;1.50;;
1507;SDS011;745;48.586;10.032;2022-11-04T02:31:45;1.73;;;1.60;;
1507;SDS011;745;48.586;10.032;2022-11-04T02:41:32;1.63;;;1.53;;
1507;SDS011;745;48.586;10.032;2022-11-04T02:46:10;2.10;;;1.90;;
1507;SDS011;745;48.586;10.032;2022-11-04T02:55:34;2.50;;;2.20;;
1507;SDS011;745;48.586;10.032;2022-11-04T03:00:08;2.10;;;1.90;;
1507;SDS011;745;48.586;10.032;2022-11-04T03:04:40;3.00;;;2.20;;
1507;SDS011;745;48.586;10.032;2022-11-04T03:09:13;2.37;;;2.10;;
1507;SDS011;745;48.586;10.032;2022-11-04T03:13:49;2.50;;;1.77;;
1507;SDS011;745;48.586;10.032;2022-11-04T03:23:19;1.53;;;1.40;;
1507;SDS011;745;48.586;10.032;2022-11-04T03:28:33;3.00;;;1.43;;
1507;SDS011;745;48.586;10.032;2022-11-04T03:37:46;1.40;;;1.10;;
1507;SDS011;745;48.586;10.032;2022-11-04T03:42:19;1.40;;;1.30;;
1507;SDS011;745;48.586;10.032;2022-11-04T03:46:51;1.83;;;1.60;;
1507;SDS011;745;48.586;10.032;2022-11-04T03:51:22;2.40;;;1.33;;
1507;SDS011;745;48.586;10.032;2022-11-04T03:56:08;1.83;;;1.33;;
1507;SDS011;745;48.586;10.032;2022-11-04T04:01:23;1.13;;;1.00;;
1507;SDS011;745;48.586;10.032;2022-11-04T04:05:52;1.63;;;1.30;;
1507;SDS011;745;48.586;10.032;2022-11-04T04:10:29;4.03;;;1.90;;
1507;SDS011;745;48.586;10.032;2022-11-04T04:15:17;1.40;;;1.30;;
1507;SDS011;745;48.586;10.032;2022-11-04T04:19:53;1.50;;;1.40;;
1507;SDS011;745;48.586;10.032;2022-11-04T04:24:31;1.30;;;1.20;;
1507;SDS011;745;48.586;10.032;2022-11-04T04:29:24;1.43;;;1.30;;
1507;SDS011;745;48.586;10.032;2022-11-04T04:33:55;2.00;;;1.50;;
1507;SDS011;745;48.586;10.032;2022-11-04T04:38:26;1.60;;;1.50;;
1507;SDS011;745;48.586;10.032;2022-11-04T04:43:16;1.40;;;1.30;;
1507;SDS011;745;48.586;10.032;2022-11-04T04:48:05;1.50;;;1.40;;
1507;SDS011;745;48.586;10.032;2022-11-04T04:52:39;1.67;;;1.20;;
1507;SDS011;745;48.586;10.032;2022-11-04T04:57:12;3.27;;;1.40;;
1507;SDS011;745;48.586;10.032;2022-11-04T05:01:42;3.43;;;1.60;;
1507;SDS011;745;48.586;10.032;2022-11-04T05:06:13;1.43;;;1.33;;
1507;SDS011;745;48.586;10.032;2022-11-04T05:10:44;2.17;;;1.43;;
1507;SDS011;745;48.586;10.032;2022-11-04T05:15:14;2.00;;;1.50;;
1507;SDS011;745;48.586;10.032;2022-11-04T05:19:45;1.73;;;1.30;;
1507;SDS011;745;48.586;10.032;2022-11-04T05:24:15;1.40;;;1.30;;
1507;SDS011;745;48.586;10.032;2022-11-04T05:28:46;2.00;;;1.50;;
1507;SDS011;745;48.586;10.032;2022-11-04T05:33:16;1.50;;;1.40;;
1507;SDS011;745;48.586;10.032;2022-11-04T05:37:47;1.60;;;1.50;;
1507;SDS011;745;48.586;10.032;2022-11-04T05:42:17;1.80;;;1.70;;
1507;SDS011;745;48.586;10.032;2022-11-04T05:46:48;1.80;;;1.70;;
1507;SDS011;745;48.586;10.032;2022-11-04T05:51:20;1.50;;;1.40;;
1507;SDS011;745;48.586;10.032;2022-11-04T05:55:52;1.63;;;1.53;;
1507;SDS011;745;48.586;10.032;2022-11-04T06:00:22;1.80;;;1.70;;
1507;SDS011;745;48.586;10.032;2022-11-04T06:04:53;1.80;;;1.70;;
1507;SDS011;745;48.586;10.032;2022-11-04T06:09:24;3.27;;;2.60;;
1507;SDS011;745;48.586;10.032;2022-11-04T06:14:08;3.60;;;3.23;;
1507;SDS011;745;48.586;10.032;2022-11-04T06:18:38;4.67;;;4.07;;
1507;SDS011;745;48.586;10.032;2022-11-04T06:23:09;5.37;;;3.90;;
1507;SDS011;745;48.586;10.032;2022-11-04T06:27:39;3.30;;;2.80;;
1507;SDS011;745;48.586;10.032;2022-11-04T06:32:11;3.60;;;2.83;;
1507;SDS011;745;48.586;10.032;2022-11-04T06:36:44;5.70;;;3.37;;
1507;SDS011;745;48.586;10.032;2022-11-04T06:41:15;5.57;;;4.77;;
1507;SDS011;745;48.586;10.032;2022-11-04T06:45:55;4.80;;;4.10;;
1507;SDS011;745;48.586;10.032;2022-11-04T06:50:27;5.60;;;4.80;;
1507;SDS011;745;48.586;10.032;2022-11-04T06:54:57;12.90;;;9.73;;
1507;SDS011;745;48.586;10.032;2022-11-04T06:59:28;9.30;;;6.23;;
1507;SDS011;745;48.586;10.032;2022-11-04T07:03:59;3.20;;;2.90;;
1507;SDS011;745;48.586;10.032;2022-11-04T07:08:30;2.13;;;1.93;;
1507;SDS011;745;48.586;10.032;2022-11-04T07:13:00;2.17;;;1.97;;
1507;SDS011;745;48.586;10.032;2022-11-04T07:17:31;2.47;;;2.27;;
1507;SDS011;745;48.586;10.032;2022-11-04T07:22:02;3.20;;;2.90;;
1507;SDS011;745;48.586;10.032;2022-11-04T07:26:32;3.40;;;3.10;;
1507;SDS011;745;48.586;10.032;2022-11-04T07:31:03;3.30;;;3.00;;
1507;SDS011;745;48.586;10.032;2022-11-04T07:35:34;2.30;;;2.10;;
1507;SDS011;745;48.586;10.032;2022-11-04T07:40:05;2.70;;;2.50;;
1507;SDS011;745;48.586;10.032;2022-11-04T07:44:36;6.20;;;4.90;;
1507;SDS011;745;48.586;10.032;2022-11-04T07:49:06;7.80;;;5.87;;
1507;SDS011;745;48.586;10.032;2022-11-04T07:53:37;5.50;;;4.83;;
1507;SDS011;745;48.586;10.032;2022-11-04T07:58:08;4.50;;;4.10;;
1507;SDS011;745;48.586;10.032;2022-11-04T08:02:40;5.00;;;3.90;;
1507;SDS011;745;48.586;10.032;2022-11-04T08:07:11;3.67;;;3.37;;
1507;SDS011;745;48.586;10.032;2022-11-04T08:11:41;3.40;;;2.97;;
1507;SDS011;745;48.586;10.032;2022-11-04T08:16:13;3.27;;;3.00;;
1507;SDS011;745;48.586;10.032;2022-11-04T08:20:46;3.57;;;3.27;;
1507;SDS011;745;48.586;10.032;2022-11-04T08:25:19;3.63;;;3.07;;
1507;SDS011;745;48.586;10.032;2022-11-04T08:29:49;3.27;;;2.97;;
1507;SDS011;745;48.586;10.032;2022-11-04T08:34:20;3.33;;;3.03;;
1507;SDS011;745;48.586;10.032;2022-11-04T08:38:51;3.40;;;3.10;;
1507;SDS011;745;48.586;10.032;2022-11-04T08:43:22;4.10;;;3.70;;
1507;SDS011;745;48.586;10.032;2022-11-04T08:47:53;5.87;;;4.30;;
1507;SDS011;745;48.586;10.032;2022-11-04T08:52:23;4.50;;;4.00;;
1507;SDS011;745;48.586;10.032;2022-11-04T08:56:55;4.30;;;3.53;;
1507;SDS011;745;48.586;10.032;2022-11-04T09:01:25;4.80;;;3.20;;
1507;SDS011;745;48.586;10.032;2022-11-04T09:05:57;3.90;;;3.60;;
1507;SDS011;745;48.586;10.032;2022-11-04T09:10:27;4.73;;;4.00;;
1507;SDS011;745;48.586;10.032;2022-11-04T09:14:59;4.73;;;3.90;;
1507;SDS011;745;48.586;10.032;2022-11-04T09:19:29;7.77;;;5.70;;
1507;SDS011;745;48.586;10.032;2022-11-04T09:24:01;5.77;;;4.50;;
1507;SDS011;745;48.586;10.032;2022-11-04T09:28:32;9.60;;;5.43;;
1507;SDS011;745;48.586;10.032;2022-11-04T09:33:02;7.63;;;5.30;;
1507;SDS011;745;48.586;10.032;2022-11-04T09:37:33;8.20;;;5.80;;
1507;SDS011;745;48.586;10.032;2022-11-04T09:42:10;8.10;;;4.93;;
1507;SDS011;745;48.586;10.032;2022-11-04T09:46:45;4.63;;;4.20;;
1507;SDS011;745;48.586;10.032;2022-11-04T09:51:19;4.00;;;3.50;;
1507;SDS011;745;48.586;10.032;2022-11-04T09:55:57;4.83;;;3.83;;
1507;SDS011;745;48.586;10.032;2022-11-04T10:00:30;5.60;;;3.47;;
1507;SDS011;745;48.586;10.032;2022-11-04T10:05:05;4.90;;;4.20;;
1507;SDS011;745;48.586;10.032;2022-11-04T10:09:41;5.50;;;4.60;;
1507;SDS011;745;48.586;10.032;2022-11-04T10:28:15;11.23;;;5.03;;
1507;SDS011;745;48.586;10.032;2022-11-04T10:37:53;10.20;;;5.80;;
1507;SDS011;745;48.586;10.032;2022-11-04T10:42:23;8.60;;;4.83;;
1507;SDS011;745;48.586;10.032;2022-11-04T10:51:30;6.40;;;4.37;;
1507;SDS011;745;48.586;10.032;2022-11-04T10:56:19;10.00;;;5.40;;
1507;SDS011;745;48.586;10.032;2022-11-04T11:00:55;9.77;;;6.87;;
1507;SDS011;745;48.586;10.032;2022-11-04T11:05:26;9.90;;;6.50;;
1507;SDS011;745;48.586;10.032;2022-11-04T11:09:58;7.30;;;4.90;;
1507;SDS011;745;48.586;10.032;2022-11-04T11:14:32;6.00;;;4.17;;
1507;SDS011;745;48.586;10.032;2022-11-04T11:23:41;3.13;;;2.27;;
1507;SDS011;745;48.586;10.032;2022-11-04T11:28:22;3.00;;;2.67;;
1507;SDS011;745;48.586;10.032;2022-11-04T11:32:55;2.17;;;1.97;;
1507;SDS011;745;48.586;10.032;2022-11-04T11:37:37;1.70;;;1.60;;
1507;SDS011;745;48.586;10.032;2022-11-04T11:42:12;2.40;;;2.00;;
1507;SDS011;745;48.586;10.032;2022-11-04T11:46:49;2.20;;;1.90;;
1507;SDS011;745;48.586;10.032;2022-11-04T12:00:49;6.03;;;4.80;;
1507;SDS011;745;48.586;10.032;2022-11-04T12:05:25;3.80;;;3.43;;
1507;SDS011;745;48.586;10.032;2022-11-04T12:10:48;4.20;;;2.43;;
1507;SDS011;745;48.586;10.032;2022-11-04T12:20:02;1.50;;;1.40;;
1507;SDS011;745;48.586;10.032;2022-11-04T12:30:06;2.37;;;2.17;;
1507;SDS011;745;48.586;10.032;2022-11-04T12:34:43;2.70;;;1.80;;
1507;SDS011;745;48.586;10.032;2022-11-04T12:44:34;3.50;;;2.17;;
1507;SDS011;745;48.586;10.032;2022-11-04T12:49:26;2.60;;;2.00;;
1507;SDS011;745;48.586;10.032;2022-11-04T12:54:05;3.13;;;1.90;;
1507;SDS011;745;48.586;10.032;2022-11-04T13:03:27;2.87;;;1.70;;
1507;SDS011;745;48.586;10.032;2022-11-04T13:08:09;2.10;;;1.90;;
1507;SDS011;745;48.586;10.032;2022-11-04T13:12:43;3.10;;;2.27;;
1507;SDS011;745;48.586;10.032;2022-11-04T13:17:17;2.13;;;1.90;;
1507;SDS011;745;48.586;10.032;2022-11-04T13:21:51;3.43;;;2.23;;
1507;SDS011;745;48.586;10.032;2022-11-04T13:26:23;3.57;;;2.37;;
1507;SDS011;745;48.586;10.032;2022-11-04T13:31:03;2.50;;;2.00;;
1507;SDS011;745;48.586;10.032;2022-11-04T13:35:41;2.10;;;2.00;;
1507;SDS011;745;48.586;10.032;2022-11-04T13:40:18;2.43;;;1.90;;
1507;SDS011;745;48.586;10.032;2022-11-04T13:45:11;2.20;;;2.00;;
1507;SDS011;745;48.586;10.032;2022-11-04T13:49:47;3.80;;;2.63;;
1507;SDS011;745;48.586;10.032;2022-11-04T13:54:23;3.67;;;2.93;;
1507;SDS011;745;48.586;10.032;2022-11-04T13:58:56;4.27;;;3.63;;
1507;SDS011;745;48.586;10.032;2022-11-04T14:08:10;3.93;;;3.33;;
1507;SDS011;745;48.586;10.032;2022-11-04T14:12:43;5.37;;;4.43;;
1507;SDS011;745;48.586;10.032;2022-11-04T14:17:59;5.27;;;4.77;;
1507;SDS011;745;48.586;10.032;2022-11-04T14:22:04;4.47;;;3.80;;
1507;SDS011;745;48.586;10.032;2022-11-04T14:26:41;3.70;;;3.00;;
1507;SDS011;745;48.586;10.032;2022-11-04T14:31:13;2.40;;;2.20;;
1507;SDS011;745;48.586;10.032;2022-11-04T14:35:44;3.40;;;2.20;;
1507;SDS011;745;48.586;10.032;2022-11-04T14:40:23;2.87;;;2.60;;
1507;SDS011;745;48.586;10.032;2022-11-04T14:44:56;2.73;;;2.13;;
1507;SDS011;745;48.586;10.032;2022-11-04T14:54:19;3.43;;;2.30;;
1507;SDS011;745;48.586;10.032;2022-11-04T14:58:56;2.63;;;2.00;;
1507;SDS011;745;48.586;10.032;2022-11-04T15:03:36;2.70;;;2.17;;
1507;SDS011;745;48.586;10.032;2022-11-04T15:13:06;3.70;;;3.37;;
1507;SDS011;745;48.586;10.032;2022-11-04T15:17:37;7.20;;;5.60;;
1507;SDS011;745;48.586;10.032;2022-11-04T15:22:10;4.30;;;3.13;;
1507;SDS011;745;48.586;10.032;2022-11-04T15:26:42;3.60;;;2.37;;
1507;SDS011;745;48.586;10.032;2022-11-04T15:31:14;2.20;;;2.00;;
1507;SDS011;745;48.586;10.032;2022-11-04T15:35:49;2.10;;;1.90;;
1507;SDS011;745;48.586;10.032;2022-11-04T15:40:20;1.83;;;1.73;;
1507;SDS011;745;48.586;10.032;2022-11-04T15:44:52;2.37;;;1.70;;
1507;SDS011;745;48.586;10.032;2022-11-04T15:49:28;2.07;;;1.87;;
1507;SDS011;745;48.586;10.032;2022-11-04T15:54:04;1.77;;;1.60;;
1507;SDS011;745;48.586;10.032;2022-11-04T15:58:36;1.90;;;1.80;;
1507;SDS011;745;48.586;10.032;2022-11-04T16:03:16;2.87;;;2.37;;
1507;SDS011;745;48.586;10.032;2022-11-04T16:07:48;2.30;;;2.10;;
1507;SDS011;745;48.586;10.032;2022-11-04T16:16:59;3.40;;;3.10;;
1507;SDS011;745;48.586;10.032;2022-11-04T16:21:31;5.13;;;4.20;;
1507;SDS011;745;48.586;10.032;2022-11-04T16:26:05;5.10;;;4.70;;
1507;SDS011;745;48.586;10.032;2022-11-04T16:30:35;6.13;;;5.43;;
1507;SDS011;745;48.586;10.032;2022-11-04T16:35:27;6.10;;;5.50;;
1507;SDS011;745;48.586;10.032;2022-11-04T16:39:57;6.53;;;5.87;;
1507;SDS011;745;48.586;10.032;2022-11-04T16:44:27;6.50;;;5.33;;
1507;SDS011;745;48.586;10.032;2022-11-04T16:48:58;6.37;;;5.77;;
1507;SDS011;745;48.586;10.032;2022-11-04T16:53:29;6.47;;;5.17;;
1507;SDS011;745;48.586;10.032;2022-11-04T16:58:00;6.80;;;5.43;;
1507;SDS011;745;48.586;10.032;2022-11-04T17:02:33;8.43;;;6.37;;
1507;SDS011;745;48.586;10.032;2022-11-04T17:07:06;5.60;;;5.10;;
1507;SDS011;745;48.586;10.032;2022-11-04T17:11:37;5.07;;;4.57;;
1507;SDS011;745;48.586;10.032;2022-11-04T17:16:09;4.90;;;4.20;;
1507;SDS011;745;48.586;10.032;2022-11-04T17:20:44;4.30;;;3.90;;
1507;SDS011;745;48.586;10.032;2022-11-04T17:25:21;3.67;;;3.30;;
1507;SDS011;745;48.586;10.032;2022-11-04T17:29:53;3.53;;;2.93;;
1507;SDS011;745;48.586;10.032;2022-11-04T17:34:23;4.27;;;2.80;;
1507;SDS011;745;48.586;10.032;2022-11-04T17:38:55;5.20;;;2.80;;
1507;SDS011;745;48.586;10.032;2022-11-04T17:43:26;4.10;;;2.83;;
1507;SDS011;745;48.586;10.032;2022-11-04T17:48:15;3.83;;;2.80;;
1507;SDS011;745;48.586;10.032;2022-11-04T17:52:45;3.00;;;2.70;;
1507;SDS011;745;48.586;10.032;2022-11-04T17:57:16;6.10;;;3.50;;
1507;SDS011;745;48.586;10.032;2022-11-04T18:01:47;5.00;;;3.70;;
1507;SDS011;745;48.586;10.032;2022-11-04T18:06:18;4.03;;;2.87;;
1507;SDS011;745;48.586;10.032;2022-11-04T18:10:55;4.93;;;3.37;;
1507;SDS011;745;48.586;10.032;2022-11-04T18:15:27;4.13;;;3.03;;
1507;SDS011;745;48.586;10.032;2022-11-04T18:19:58;2.50;;;2.30;;
1507;SDS011;745;48.586;10.032;2022-11-04T18:24:29;3.13;;;2.70;;
1507;SDS011;745;48.586;10.032;2022-11-04T18:29:00;2.90;;;2.70;;
1507;SDS011;745;48.586;10.032;2022-11-04T18:33:31;4.50;;;3.30;;
1507;SDS011;745;48.586;10.032;2022-11-04T18:38:02;3.90;;;2.70;;
1507;SDS011;745;48.586;10.032;2022-11-04T18:42:32;2.80;;;2.60;;
1507;SDS011;745;48.586;10.032;2022-11-04T18:47:02;3.67;;;2.60;;
1507;SDS011;745;48.586;10.032;2022-11-04T18:51:33;3.23;;;2.93;;
1507;SDS011;745;48.586;10.032;2022-11-04T18:56:04;3.23;;;2.73;;
1507;SDS011;745;48.586;10.032;2022-11-04T19:00:39;2.73;;;2.53;;
1507;SDS011;745;48.586;10.032;2022-11-04T19:05:10;2.50;;;2.30;;
1507;SDS011;745;48.586;10.032;2022-11-04T19:09:40;3.10;;;2.70;;
1507;SDS011;745;48.586;10.032;2022-11-04T19:14:12;2.60;;;2.30;;
1507;SDS011;745;48.586;10.032;2022-11-04T19:18:44;2.50;;;2.30;;
1507;SDS011;745;48.586;10.032;2022-11-04T19:23:18;4.83;;;3.20;;
1507;SDS011;745;48.586;10.032;2022-11-04T19:27:48;3.50;;;2.50;;
1507;SDS011;745;48.586;10.032;2022-11-04T19:32:19;3.60;;;2.73;;
1507;SDS011;745;48.586;10.032;2022-11-04T19:36:49;3.07;;;2.83;;
1507;SDS011;745;48.586;10.032;2022-11-04T19:41:21;3.07;;;2.43;;
1507;SDS011;745;48.586;10.032;2022-11-04T19:46:11;3.20;;;2.90;;
1507;SDS011;745;48.586;10.032;2022-11-04T19:50:42;3.03;;;2.77;;
1507;SDS011;745;48.586;10.032;2022-11-04T19:55:17;2.60;;;2.40;;
1507;SDS011;745;48.586;10.032;2022-11-04T19:59:48;3.80;;;3.10;;
1507;SDS011;745;48.586;10.032;2022-11-04T20:04:20;2.80;;;2.60;;
1507;SDS011;745;48.586;10.032;2022-11-04T20:08:50;3.27;;;2.50;;
1507;SDS011;745;48.586;10.032;2022-11-04T20:13:21;2.83;;;2.50;;
1507;SDS011;745;48.586;10.032;2022-11-04T20:18:10;2.93;;;2.73;;
1507;SDS011;745;48.586;10.032;2022-11-04T20:22:41;2.67;;;2.47;;
1507;SDS011;745;48.586;10.032;2022-11-04T20:27:11;2.77;;;2.57;;
1507;SDS011;745;48.586;10.032;2022-11-04T20:31:44;2.30;;;2.10;;
1507;SDS011;745;48.586;10.032;2022-11-04T20:36:15;3.47;;;3.07;;
1507;SDS011;745;48.586;10.032;2022-11-04T20:40:47;3.20;;;2.80;;
1507;SDS011;745;48.586;10.032;2022-11-04T20:45:18;3.37;;;3.07;;
1507;SDS011;745;48.586;10.032;2022-11-04T20:49:50;2.33;;;2.13;;
1507;SDS011;745;48.586;10.032;2022-11-04T20:54:21;4.90;;;3.20;;
1507;SDS011;745;48.586;10.032;2022-11-04T20:58:52;2.70;;;2.50;;
1507;SDS011;745;48.586;10.032;2022-11-04T21:03:25;5.20;;;2.53;;
1507;SDS011;745;48.586;10.032;2022-11-04T21:07:57;2.70;;;2.50;;
1507;SDS011;745;48.586;10.032;2022-11-04T21:12:28;2.60;;;2.40;;
1507;SDS011;745;48.586;10.032;2022-11-04T21:16:59;2.77;;;2.40;;
1507;SDS011;745;48.586;10.032;2022-11-04T21:21:31;3.30;;;2.97;;
1507;SDS011;745;48.586;10.032;2022-11-04T21:26:06;4.23;;;3.80;;
1507;SDS011;745;48.586;10.032;2022-11-04T21:30:40;3.73;;;3.43;;
1507;SDS011;745;48.586;10.032;2022-11-04T21:35:15;4.60;;;3.73;;
1507;SDS011;745;48.586;10.032;2022-11-04T21:39:46;3.90;;;3.40;;
1507;SDS011;745;48.586;10.032;2022-11-04T21:44:16;4.27;;;3.87;;
1507;SDS011;745;48.586;10.032;2022-11-04T21:48:47;5.17;;;3.83;;
1507;SDS011;745;48.586;10.032;2022-11-04T21:53:17;4.33;;;3.93;;
1507;SDS011;745;48.586;10.032;2022-11-04T21:57:48;4.13;;;3.73;;
1507;SDS011;745;48.586;10.032;2022-11-04T22:02:19;5.33;;;3.80;;
1507;SDS011;745;48.586;10.032;2022-11-04T22:06:50;5.03;;;4.47;;
1507;SDS011;745;48.586;10.032;2022-11-04T22:11:22;5.40;;;4.87;;
1507;SDS011;745;48.586;10.032;2022-11-04T22:15:56;5.23;;;4.33;;
1507;SDS011;745;48.586;10.032;2022-11-04T22:20:29;4.77;;;4.27;;
1507;SDS011;745;48.586;10.032;2022-11-04T22:25:01;5.70;;;5.20;;
1507;SDS011;745;48.586;10.032;2022-11-04T22:29:36;6.17;;;5.50;;
1507;SDS011;745;48.586;10.032;2022-11-04T22:34:07;7.10;;;5.83;;
1507;SDS011;745;48.586;10.032;2022-11-04T22:38:38;6.10;;;5.50;;
1507;SDS011;745;48.586;10.032;2022-11-04T22:43:09;7.03;;;5.50;;
1507;SDS011;745;48.586;10.032;2022-11-04T22:47:40;6.63;;;5.97;;
1507;SDS011;745;48.586;10.032;2022-11-04T22:52:11;8.43;;;7.00;;
1507;SDS011;745;48.586;10.032;2022-11-04T22:56:42;7.70;;;6.80;;
1507;SDS011;745;48.586;10.032;2022-11-04T23:01:13;8.63;;;7.73;;
1507;SDS011;745;48.586;10.032;2022-11-04T23:05:44;15.57;;;10.87;;
1507;SDS011;745;48.586;10.032;2022-11-04T23:10:14;17.60;;;11.57;;
1507;SDS011;745;48.586;10.032;2022-11-04T23:15:04;19.00;;;13.40;;
1507;SDS011;745;48.586;10.032;2022-11-04T23:19:53;16.20;;;12.70;;
1507;SDS011;745;48.586;10.032;2022-11-04T23:24:23;20.97;;;15.10;;
1507;SDS011;745;48.586;10.032;2022-11-04T23:29:13;17.33;;;12.13;;
1507;SDS011;745;48.586;10.032;2022-11-04T23:34:02;18.37;;;13.40;;
1507;SDS011;745;48.586;10.032;2022-11-04T23:38:51;18.33;;;12.03;;
1507;SDS011;745;48.586;10.032;2022-11-04T23:43:22;20.87;;;13.30;;
1507;SDS011;745;48.586;10.032;2022-11-04T23:47:52;20.03;;;14.20;;
1507;SDS011;745;48.586;10.032;2022-11-04T23:52:43;19.00;;;13.90;;
1507;SDS011;745;48.586;10.032;2022-11-04T23:57:32;16.80;;;12.10;;
